Time;durP1;ratioP1;P1;durP2;ratioP2;P2;SDS_P1;SDS_P2;PMS_P1;PMS_P2;Temp;Humidity;BMP_temperature;BMP_pressure;BME280_temperature;BME280_humidity;BME280_pressure;Samples;Min_cycle;Max_cycle;Signal;HPM_P1;HPM_P2
2022/07/17 00:02:13;;;;;;;3.25;1.27;;;15.60;99.90;;;;;;5104793;28;20198;-70
2022/07/17 00:04:39;;;;;;;3.00;1.10;;;15.60;99.90;;;;;;5105598;28;20319;-71
2022/07/17 00:07:04;;;;;;;8.73;1.60;;;15.60;99.90;;;;;;5094401;28;20214;-72
2022/07/17 00:09:30;;;;;;;5.15;1.27;;;15.60;99.90;;;;;;5108266;28;20702;-71
2022/07/17 00:11:55;;;;;;;3.05;1.40;;;15.50;99.90;;;;;;5091885;28;20186;-70
2022/07/17 00:14:21;;;;;;;3.67;1.73;;;15.50;99.90;;;;;;5091885;28;20248;-70
2022/07/17 00:16:47;;;;;;;4.93;1.40;;;15.50;99.90;;;;;;5091123;28;20226;-68
2022/07/17 00:19:12;;;;;;;7.50;1.85;;;15.40;99.90;;;;;;5091223;28;20206;-69
2022/07/17 00:21:38;;;;;;;3.50;1.60;;;15.40;99.90;;;;;;5091134;28;20725;-70
2022/07/17 00:24:06;;;;;;;2.92;0.90;;;15.40;99.90;;;;;;5091080;28;20551;-69
2022/07/17 00:26:32;;;;;;;4.18;1.67;;;15.50;99.90;;;;;;5091760;28;20194;-69
2022/07/17 00:28:58;;;;;;;2.20;1.20;;;15.50;99.90;;;;;;5090973;28;20291;-69
2022/07/17 00:31:23;;;;;;;4.93;1.48;;;15.50;99.90;;;;;;5091028;28;20224;-70
2022/07/17 00:33:49;;;;;;;4.13;1.63;;;15.40;99.90;;;;;;5090784;28;20202;-70
2022/07/17 00:36:14;;;;;;;3.60;1.50;;;15.30;99.90;;;;;;5090663;28;20186;-69
2022/07/17 00:38:40;;;;;;;3.83;1.58;;;15.20;99.90;;;;;;5091412;28;20271;-69
2022/07/17 00:41:06;;;;;;;4.75;1.48;;;15.20;99.90;;;;;;5091141;28;20198;-70
2022/07/17 00:43:31;;;;;;;5.40;1.75;;;15.30;99.90;;;;;;5072393;28;20210;-70
2022/07/17 00:45:59;;;;;;;2.95;1.48;;;15.30;99.90;;;;;;5090913;28;20256;-70
2022/07/17 00:48:25;;;;;;;5.22;1.75;;;15.30;99.90;;;;;;5072329;28;20225;-70
2022/07/17 00:50:52;;;;;;;5.50;1.33;;;15.30;99.90;;;;;;5091256;28;20228;-70
2022/07/17 00:53:18;;;;;;;6.78;1.60;;;15.20;99.90;;;;;;5090817;28;20225;-70
2022/07/17 00:55:49;;;;;;;5.28;1.58;;;15.20;99.90;;;;;;5090596;28;20228;-69
2022/07/17 00:58:21;;;;;;;4.32;1.30;;;15.20;99.90;;;;;;5090804;28;20210;-70
2022/07/17 01:00:52;;;;;;;4.97;1.90;;;15.30;99.90;;;;;;5077850;28;20606;-69
2022/07/17 01:03:19;;;;;;;3.30;1.23;;;15.20;99.90;;;;;;5086680;28;20257;-70
2022/07/17 01:05:46;;;;;;;4.00;1.10;;;15.20;99.90;;;;;;5090942;28;20643;-68
2022/07/17 01:08:12;;;;;;;3.05;1.40;;;15.10;99.90;;;;;;5090279;28;20214;-70
2022/07/17 01:10:38;;;;;;;6.18;1.83;;;14.90;99.90;;;;;;5090367;28;20245;-70
2022/07/17 01:13:04;;;;;;;4.85;1.35;;;14.90;99.90;;;;;;5072801;28;20226;-70
2022/07/17 01:15:31;;;;;;;3.88;1.23;;;14.90;99.90;;;;;;5090198;28;20214;-70
2022/07/17 01:17:57;;;;;;;6.15;2.00;;;14.90;99.90;;;;;;5090764;28;20198;-70
2022/07/17 01:20:23;;;;;;;5.38;1.73;;;14.90;99.90;;;;;;5090279;28;20198;-72
2022/07/17 01:22:50;;;;;;;8.52;1.90;;;14.90;99.90;;;;;;5090440;28;20210;-70
2022/07/17 01:25:19;;;;;;;3.05;1.88;;;14.90;99.90;;;;;;5090765;28;20578;-70
2022/07/17 01:27:45;;;;;;;5.43;1.38;;;14.80;99.90;;;;;;5090008;28;20209;-69
2022/07/17 01:30:10;;;;;;;4.22;1.65;;;14.80;99.90;;;;;;5090302;28;20170;-71
2022/07/17 01:32:41;;;;;;;5.03;1.45;;;14.80;99.90;;;;;;5072583;28;20181;-70
2022/07/17 01:35:09;;;;;;;7.13;1.75;;;14.80;99.90;;;;;;5090430;28;20240;-69
2022/07/17 01:37:35;;;;;;;4.30;1.40;;;14.80;99.90;;;;;;5090149;28;20719;-70
2022/07/17 01:40:00;;;;;;;3.13;1.58;;;14.70;99.90;;;;;;5090181;28;20256;-71
2022/07/17 01:42:27;;;;;;;4.15;1.67;;;14.70;99.90;;;;;;5089875;28;20281;-70
2022/07/17 01:44:54;;;;;;;5.43;2.33;;;14.60;99.90;;;;;;5090716;28;20167;-70
2022/07/17 01:47:21;;;;;;;8.43;2.08;;;14.60;99.90;;;;;;5092486;28;20213;-71
2022/07/17 01:49:49;;;;;;;5.78;1.80;;;14.50;99.90;;;;;;5086596;28;20222;-70
2022/07/17 01:52:15;;;;;;;4.10;1.38;;;14.50;99.90;;;;;;5094299;28;20206;-70
2022/07/17 01:54:42;;;;;;;3.45;1.70;;;14.40;99.90;;;;;;5094046;28;20212;-70
2022/07/17 01:57:08;;;;;;;4.22;1.83;;;14.40;99.90;;;;;;5093897;28;20285;-69
2022/07/17 01:59:35;;;;;;;4.00;1.60;;;14.40;99.90;;;;;;5075785;28;20635;-71
2022/07/17 02:02:00;;;;;;;7.60;1.75;;;14.50;99.90;;;;;;5093123;28;20255;-71
2022/07/17 02:04:26;;;;;;;8.27;1.92;;;14.50;99.90;;;;;;5069517;28;20683;-70
2022/07/17 02:06:55;;;;;;;4.55;1.38;;;14.40;99.90;;;;;;5093977;28;20202;-70
2022/07/17 02:09:22;;;;;;;3.53;1.30;;;14.40;99.90;;;;;;5066565;28;20198;-71
2022/07/17 02:11:47;;;;;;;5.90;1.50;;;14.30;99.90;;;;;;5076343;28;20562;-70
2022/07/17 02:14:13;;;;;;;3.55;1.50;;;14.30;99.90;;;;;;5093589;28;20198;-70
2022/07/17 02:16:38;;;;;;;6.53;1.67;;;14.20;99.90;;;;;;5111994;22;20234;-69
2022/07/17 02:19:04;;;;;;;6.05;1.50;;;14.10;99.90;;;;;;5081256;28;20206;-69
2022/07/17 02:21:30;;;;;;;3.58;1.75;;;14.10;99.90;;;;;;5065833;28;20213;-69
2022/07/17 02:23:56;;;;;;;6.50;1.55;;;14.10;99.90;;;;;;5080825;28;20174;-69
2022/07/17 02:26:21;;;;;;;5.28;1.80;;;14.10;99.90;;;;;;5079293;28;20306;-70
2022/07/17 02:28:47;;;;;;;6.75;1.58;;;14.00;99.90;;;;;;5054098;28;20453;-69
2022/07/17 02:31:12;;;;;;;8.00;2.10;;;14.00;99.90;;;;;;5054395;28;20199;-69
2022/07/17 02:33:38;;;;;;;4.93;1.58;;;14.00;99.90;;;;;;5055711;28;20214;-70
2022/07/17 02:36:04;;;;;;;3.67;1.48;;;14.00;99.90;;;;;;5057249;28;20210;-71
2022/07/17 02:38:30;;;;;;;5.65;1.40;;;14.00;99.90;;;;;;5054513;28;20652;-70
2022/07/17 02:40:56;;;;;;;4.38;1.23;;;14.00;99.90;;;;;;5054132;28;20261;-69
2022/07/17 02:43:21;;;;;;;6.20;2.10;;;13.90;99.90;;;;;;5054109;28;20211;-68
2022/07/17 02:45:47;;;;;;;4.65;1.58;;;13.90;99.90;;;;;;5057616;28;20212;-69
2022/07/17 02:48:12;;;;;;;3.88;1.48;;;14.00;99.90;;;;;;5058230;28;20298;-69
2022/07/17 02:50:38;;;;;;;3.30;1.60;;;14.00;99.90;;;;;;5055487;28;20191;-70
2022/07/17 02:53:03;;;;;;;6.85;1.40;;;14.00;99.90;;;;;;5059878;28;20622;-70
2022/07/17 02:55:29;;;;;;;9.38;2.08;;;13.90;99.90;;;;;;5053434;28;20214;-69
2022/07/17 02:57:55;;;;;;;6.32;2.15;;;13.90;99.90;;;;;;5052779;28;20211;-70
2022/07/17 03:00:20;;;;;;;4.60;1.70;;;13.80;99.90;;;;;;5047116;28;20183;-70
2022/07/17 03:02:47;;;;;;;3.45;1.75;;;13.80;99.90;;;;;;5065314;28;20183;-69
2022/07/17 03:05:14;;;;;;;6.75;1.80;;;13.90;99.90;;;;;;5072891;28;20289;-70
2022/07/17 03:07:40;;;;;;;3.90;1.30;;;13.90;99.90;;;;;;5072077;28;20218;-69
2022/07/17 03:10:07;;;;;;;4.50;1.60;;;13.90;99.90;;;;;;5072605;28;20203;-69
2022/07/17 03:12:33;;;;;;;4.00;1.30;;;13.90;99.90;;;;;;5071191;28;20734;-71
2022/07/17 03:14:59;;;;;;;2.83;1.48;;;13.90;99.90;;;;;;5073083;28;20179;-70
2022/07/17 03:17:24;;;;;;;4.45;1.38;;;13.90;99.90;;;;;;5070764;28;20337;-69
2022/07/17 03:19:51;;;;;;;6.70;1.75;;;13.90;99.90;;;;;;5072318;28;20256;-69
2022/07/17 03:22:16;;;;;;;5.85;1.65;;;14.00;99.90;;;;;;5072427;28;20203;-69
2022/07/17 03:24:42;;;;;;;4.85;1.67;;;14.00;99.90;;;;;;5069167;28;20194;-70
2022/07/17 03:27:07;;;;;;;4.55;1.60;;;14.10;99.90;;;;;;5067201;28;20202;-70
2022/07/17 03:29:33;;;;;;;6.20;1.55;;;14.00;99.90;;;;;;5072355;28;20207;-69
2022/07/17 03:31:59;;;;;;;11.45;2.13;;;14.10;99.90;;;;;;5069086;28;20214;-70
2022/07/17 03:34:25;;;;;;;9.45;1.70;;;14.10;99.90;;;;;;5071949;28;20199;-70
2022/07/17 03:36:50;;;;;;;5.50;1.70;;;14.20;99.90;;;;;;5071891;28;20679;-69
2022/07/17 03:39:16;;;;;;;4.60;1.88;;;14.30;99.90;;;;;;5071900;28;20179;-70
2022/07/17 03:41:41;;;;;;;4.53;1.60;;;14.70;99.90;;;;;;5072426;28;20174;-69
2022/07/17 03:44:07;;;;;;;2.70;1.27;;;15.70;99.90;;;;;;5072078;28;20247;-70
2022/07/17 03:46:33;;;;;;;4.82;1.20;;;16.50;99.90;;;;;;5071690;28;20218;-70
2022/07/17 03:48:58;;;;;;;2.95;1.48;;;17.80;99.90;;;;;;5071535;28;20294;-70
2022/07/17 03:51:24;;;;;;;4.53;1.58;;;18.60;99.90;;;;;;5070187;28;20278;-69
2022/07/17 03:53:50;;;;;;;5.65;1.60;;;19.40;99.90;;;;;;5072449;28;20179;-70
2022/07/17 03:56:15;;;;;;;3.33;1.35;;;20.30;99.90;;;;;;5064923;28;20290;-68
2022/07/17 03:58:41;;;;;;;3.50;1.85;;;20.90;99.90;;;;;;5071160;28;20203;-71
2022/07/17 04:01:07;;;;;;;5.75;1.13;;;21.40;99.90;;;;;;5069155;28;20195;-69
2022/07/17 04:03:32;;;;;;;4.35;1.52;;;22.00;99.90;;;;;;5071989;28;20214;-70
2022/07/17 04:05:58;;;;;;;4.95;1.35;;;22.30;99.90;;;;;;5071869;28;20253;-71
2022/07/17 04:08:23;;;;;;;5.72;1.38;;;23.10;99.90;;;;;;5070615;28;20309;-69
2022/07/17 04:10:49;;;;;;;4.55;1.52;;;23.40;99.90;;;;;;5070521;28;20253;-71
2022/07/17 04:13:15;;;;;;;2.88;1.27;;;22.90;99.90;;;;;;5070014;28;20581;-71
2022/07/17 04:15:50;;;;;;;5.85;1.58;;;23.70;99.90;;;;;;5071039;28;20253;-71
2022/07/17 04:18:20;;;;;;;2.97;1.02;;;23.80;99.90;;;;;;5069408;28;20220;-71
2022/07/17 04:20:47;;;;;;;3.40;1.38;;;24.20;99.90;;;;;;5055963;28;20261;-70
2022/07/17 04:23:13;;;;;;;7.28;1.80;;;25.10;99.90;;;;;;5070445;28;20211;-70
2022/07/17 04:25:39;;;;;;;4.60;1.30;;;25.60;99.90;;;;;;5061861;28;20273;-69
2022/07/17 04:28:04;;;;;;;4.68;1.20;;;25.70;99.90;;;;;;5065136;28;20306;-69
2022/07/17 04:30:30;;;;;;;3.80;1.45;;;26.10;99.90;;;;;;5066721;28;20672;-70
2022/07/17 04:32:56;;;;;;;5.22;1.42;;;26.40;99.90;;;;;;5070415;28;20257;-70
2022/07/17 04:35:21;;;;;;;3.72;1.42;;;26.50;99.90;;;;;;5070819;28;20213;-70
2022/07/17 04:37:47;;;;;;;6.82;1.55;;;26.80;99.90;;;;;;5070867;28;20203;-69
2022/07/17 04:40:12;;;;;;;4.47;1.60;;;27.00;99.90;;;;;;5063688;28;20195;-70
2022/07/17 04:42:38;;;;;;;6.90;1.60;;;27.20;99.90;;;;;;5069863;28;20260;-70
2022/07/17 04:45:05;;;;;;;2.72;1.40;;;27.10;99.80;;;;;;5070852;28;20250;-71
2022/07/17 04:47:31;;;;;;;5.22;1.60;;;27.50;99.40;;;;;;5070901;28;20667;-71
2022/07/17 04:49:57;;;;;;;4.88;1.52;;;27.60;98.70;;;;;;5065442;28;20222;-71
2022/07/17 04:52:23;;;;;;;2.90;1.40;;;27.60;98.20;;;;;;5066037;28;20203;-67
2022/07/17 04:54:48;;;;;;;3.10;1.52;;;27.20;98.20;;;;;;5062319;28;20211;-70
2022/07/17 04:57:14;;;;;;;3.55;1.50;;;27.10;98.80;;;;;;5069701;28;20199;-70
2022/07/17 04:59:39;;;;;;;3.67;1.60;;;27.10;98.40;;;;;;5070827;28;20174;-70
2022/07/17 05:02:05;;;;;;;3.47;1.40;;;27.20;97.80;;;;;;5066421;28;20199;-68
2022/07/17 05:04:31;;;;;;;8.13;3.42;;;27.00;98.30;;;;;;5070886;28;20211;-68
2022/07/17 05:06:57;;;;;;;7.35;2.03;;;27.00;98.40;;;;;;5071037;28;20207;-71
2022/07/17 05:09:22;;;;;;;4.40;2.00;;;27.00;98.20;;;;;;5071334;28;20218;-68
2022/07/17 05:11:48;;;;;;;4.50;2.03;;;27.10;98.00;;;;;;5072599;28;20175;-68
2022/07/17 05:14:13;;;;;;;3.10;1.42;;;27.20;97.90;;;;;;5071583;28;20713;-68
2022/07/17 05:16:39;;;;;;;2.25;1.60;;;27.40;97.50;;;;;;5071353;28;20746;-68
2022/07/17 05:19:05;;;;;;;3.67;1.65;;;27.20;97.30;;;;;;5051355;28;20575;-68
2022/07/17 05:21:31;;;;;;;4.15;1.63;;;27.60;97.20;;;;;;5053567;28;20218;-70
2022/07/17 05:23:57;;;;;;;6.50;1.92;;;28.30;96.30;;;;;;5055677;28;20180;-68
2022/07/17 05:26:23;;;;;;;5.55;3.03;;;28.40;95.90;;;;;;5061813;28;20298;-70
2022/07/17 05:28:49;;;;;;;3.38;1.42;;;28.70;95.10;;;;;;5054457;28;20235;-67
2022/07/17 05:31:15;;;;;;;4.15;1.85;;;28.30;95.30;;;;;;5055131;28;20215;-69
2022/07/17 05:33:40;;;;;;;3.17;1.55;;;28.90;94.90;;;;;;5054944;28;20673;-68
2022/07/17 05:36:06;;;;;;;3.78;1.23;;;28.70;94.50;;;;;;5053489;28;20180;-68
2022/07/17 05:38:31;;;;;;;6.63;1.80;;;29.30;93.70;;;;;;5054751;28;20203;-69
2022/07/17 05:40:57;;;;;;;4.15;1.65;;;28.30;93.00;;;;;;5054685;28;20203;-68
2022/07/17 05:43:23;;;;;;;4.82;1.33;;;28.30;93.80;;;;;;5053190;28;20215;-69
2022/07/17 05:45:48;;;;;;;2.22;1.30;;;28.30;93.30;;;;;;5055016;28;20215;-69
2022/07/17 05:48:14;;;;;;;3.83;1.17;;;28.80;93.00;;;;;;5054475;28;20211;-69
2022/07/17 05:50:39;;;;;;;3.90;1.42;;;28.60;92.70;;;;;;5055152;28;20271;-69
2022/07/17 05:53:05;;;;;;;4.82;1.42;;;28.30;92.70;;;;;;5054890;28;20203;-69
2022/07/17 05:55:31;;;;;;;3.70;1.50;;;28.50;92.90;;;;;;5054868;28;20231;-69
2022/07/17 05:57:56;;;;;;;3.45;1.63;;;28.20;92.60;;;;;;5053928;28;20231;-68
2022/07/17 06:00:22;;;;;;;4.35;1.70;;;28.30;92.30;;;;;;5054683;28;20257;-69
2022/07/17 06:02:47;;;;;;;3.78;1.63;;;28.00;91.90;;;;;;5055028;28;20176;-67
2022/07/17 06:05:13;;;;;;;3.08;1.30;;;28.00;92.00;;;;;;5053290;28;20588;-68
2022/07/17 06:07:39;;;;;;;2.92;1.55;;;26.90;92.50;;;;;;5053875;28;20214;-68
2022/07/17 06:10:05;;;;;;;4.05;1.30;;;26.00;93.70;;;;;;5053657;28;20203;-69
2022/07/17 06:12:31;;;;;;;4.65;1.63;;;25.90;93.70;;;;;;5053634;28;20215;-69
2022/07/17 06:14:56;;;;;;;4.70;1.52;;;25.90;94.20;;;;;;5054212;28;20167;-69
2022/07/17 06:17:22;;;;;;;4.90;1.50;;;26.50;93.90;;;;;;5053662;28;20211;-70
2022/07/17 06:19:51;;;;;;;1.95;1.20;;;27.20;93.00;;;;;;5053619;28;20581;-68
2022/07/17 06:22:19;;;;;;;3.15;1.33;;;27.10;92.30;;;;;;5052402;28;20215;-69
2022/07/17 06:24:45;;;;;;;2.85;1.40;;;26.60;92.50;;;;;;5055892;28;20232;-68
2022/07/17 06:27:11;;;;;;;3.38;1.20;;;26.10;93.30;;;;;;5058617;28;20281;-68
2022/07/17 06:29:37;;;;;;;3.67;1.33;;;26.40;93.00;;;;;;5053682;28;20627;-68
2022/07/17 06:32:02;;;;;;;5.03;1.42;;;26.60;92.20;;;;;;5053076;28;20215;-69
2022/07/17 06:34:28;;;;;;;4.88;1.58;;;26.30;92.70;;;;;;5053706;28;20215;-68
2022/07/17 06:36:53;;;;;;;3.17;1.50;;;25.60;92.50;;;;;;5052331;28;20208;-68
2022/07/17 06:39:19;;;;;;;3.30;1.58;;;25.60;93.00;;;;;;5053003;28;20633;-69
2022/07/17 06:41:45;;;;;;;4.13;1.48;;;25.30;93.70;;;;;;5053831;28;20190;-69
2022/07/17 06:44:10;;;;;;;4.65;1.27;;;24.10;94.60;;;;;;5053424;28;20580;-70
2022/07/17 06:46:36;;;;;;;4.32;1.70;;;24.00;95.60;;;;;;5051744;28;20223;-68
2022/07/17 06:49:01;;;;;;;3.38;1.55;;;23.50;96.60;;;;;;5053357;28;20231;-68
2022/07/17 06:51:27;;;;;;;4.78;1.50;;;23.10;97.50;;;;;;5052039;28;20223;-69
2022/07/17 06:53:52;;;;;;;3.15;1.30;;;23.00;98.30;;;;;;5053665;28;20179;-68
2022/07/17 06:56:18;;;;;;;5.20;1.48;;;22.70;98.50;;;;;;5052790;28;20204;-68
2022/07/17 06:58:44;;;;;;;5.28;1.60;;;22.00;99.90;;;;;;5052513;28;20254;-69
2022/07/17 07:01:09;;;;;;;3.33;1.70;;;21.40;99.90;;;;;;5053576;28;20203;-68
2022/07/17 07:03:35;;;;;;;6.45;1.40;;;21.20;99.90;;;;;;5053320;28;20208;-69
2022/07/17 07:06:01;;;;;;;4.40;1.65;;;21.20;99.90;;;;;;5053879;28;20635;-68
2022/07/17 07:08:26;;;;;;;5.30;1.83;;;21.20;99.90;;;;;;5052968;28;20759;-69
2022/07/17 07:10:52;;;;;;;6.13;1.58;;;21.40;99.90;;;;;;5051817;28;20203;-71
2022/07/17 07:13:17;;;;;;;7.70;1.77;;;21.60;99.90;;;;;;5052946;28;20218;-68
2022/07/17 07:15:43;;;;;;;5.75;2.05;;;21.50;99.90;;;;;;5053286;28;20286;-69
2022/07/17 07:18:09;;;;;;;3.42;1.38;;;21.60;99.90;;;;;;5051717;28;20207;-69
2022/07/17 07:20:34;;;;;;;5.45;1.63;;;21.60;99.90;;;;;;5053357;28;20175;-69
2022/07/17 07:23:00;;;;;;;6.28;1.75;;;21.50;99.90;;;;;;5052879;28;20223;-69
2022/07/17 07:25:26;;;;;;;6.18;1.65;;;21.20;99.90;;;;;;5060327;28;20291;-68
2022/07/17 07:27:51;;;;;;;6.25;1.67;;;20.90;99.90;;;;;;5052578;28;20215;-69
2022/07/17 07:30:17;;;;;;;3.67;1.45;;;20.60;99.90;;;;;;5052473;28;20168;-68
2022/07/17 07:32:43;;;;;;;7.00;1.67;;;20.60;99.90;;;;;;5051680;28;20175;-71
2022/07/17 07:35:09;;;;;;;5.43;1.40;;;20.10;99.90;;;;;;5052534;28;20211;-71
2022/07/17 07:37:35;;;;;;;4.63;1.73;;;20.40;99.90;;;;;;5052341;28;20211;-70
2022/07/17 07:40:02;;;;;;;4.50;1.58;;;21.00;99.90;;;;;;5050713;28;20207;-71
2022/07/17 07:42:27;;;;;;;6.20;1.50;;;21.50;99.90;;;;;;5052056;28;20215;-70
2022/07/17 07:44:53;;;;;;;5.82;1.70;;;21.30;99.90;;;;;;5051726;28;20175;-71
2022/07/17 07:47:18;;;;;;;2.28;1.23;;;21.50;99.90;;;;;;5052414;28;20699;-70
2022/07/17 07:49:44;;;;;;;3.60;1.77;;;20.90;99.90;;;;;;5051863;28;20215;-71
2022/07/17 07:52:09;;;;;;;5.43;1.92;;;20.60;99.90;;;;;;5052116;28;20215;-69
2022/07/17 07:54:35;;;;;;;5.13;1.52;;;20.50;99.90;;;;;;5052150;28;20223;-72
2022/07/17 07:57:01;;;;;;;5.28;2.03;;;20.40;99.90;;;;;;5051993;28;20202;-71
2022/07/17 07:59:27;;;;;;;4.50;1.65;;;19.70;99.90;;;;;;5051978;28;20187;-70
2022/07/17 08:01:53;;;;;;;6.40;1.70;;;19.60;99.90;;;;;;5050826;28;20200;-70
2022/07/17 08:04:18;;;;;;;8.05;1.63;;;19.60;99.90;;;;;;5051682;28;20671;-70
2022/07/17 08:06:44;;;;;;;5.30;2.05;;;19.80;99.90;;;;;;5051504;28;20207;-71
2022/07/17 08:09:09;;;;;;;6.55;1.88;;;20.40;99.90;;;;;;5051310;28;20699;-70
2022/07/17 08:11:35;;;;;;;5.78;1.75;;;20.70;99.90;;;;;;5051955;28;20188;-70
2022/07/17 08:14:01;;;;;;;7.28;2.05;;;20.50;99.90;;;;;;5051372;28;20211;-70
2022/07/17 08:16:26;;;;;;;7.53;2.22;;;20.60;99.90;;;;;;5051282;28;20630;-70
2022/07/17 08:18:52;;;;;;;9.05;1.75;;;20.40;99.90;;;;;;5077227;22;20218;-71
2022/07/17 08:21:17;;;;;;;5.32;2.13;;;20.80;99.90;;;;;;5073132;28;20253;-71
2022/07/17 08:23:43;;;;;;;5.13;1.33;;;21.40;99.90;;;;;;5082129;28;20195;-72
2022/07/17 08:26:08;;;;;;;4.88;1.58;;;22.20;99.90;;;;;;5085727;28;20403;-71
2022/07/17 08:28:34;;;;;;;6.38;1.40;;;23.00;99.90;;;;;;5056061;28;20226;-72
2022/07/17 08:31:00;;;;;;;7.50;1.73;;;23.60;99.90;;;;;;5050970;28;20293;-71
2022/07/17 08:33:26;;;;;;;2.08;1.42;;;24.90;99.90;;;;;;5041871;28;20700;-72
2022/07/17 08:35:51;;;;;;;3.42;1.42;;;25.10;99.90;;;;;;5055723;28;20236;-71
2022/07/17 08:38:17;;;;;;;2.85;1.00;;;25.70;99.90;;;;;;5050461;28;20614;-71
2022/07/17 08:40:49;;;;;;;2.92;1.38;;;25.30;99.90;;;;;;5050793;28;20215;-72
2022/07/17 08:43:15;;;;;;;2.97;1.83;;;25.30;99.70;;;;;;5050862;28;20230;-72
2022/07/17 08:45:40;;;;;;;3.80;1.60;;;25.00;99.90;;;;;;5040824;28;20681;-72
2022/07/17 08:48:11;;;;;;;6.60;2.63;;;24.60;99.90;;;;;;5050506;28;20254;-72
2022/07/17 08:50:37;;;;;;;4.07;1.50;;;24.20;99.90;;;;;;5051303;28;20182;-71
2022/07/17 08:53:03;;;;;;;5.80;1.95;;;24.10;99.90;;;;;;5040192;28;20202;-72
2022/07/17 08:55:29;;;;;;;3.38;1.52;;;23.70;99.90;;;;;;5043799;28;20565;-71
2022/07/17 08:57:55;;;;;;;6.13;1.75;;;22.80;99.90;;;;;;5070353;28;20269;-72
2022/07/17 09:00:23;;;;;;;4.10;1.60;;;22.40;99.90;;;;;;5043819;28;20293;-72
2022/07/17 09:02:55;;;;;;;5.75;1.60;;;22.70;99.90;;;;;;5044297;28;20198;-71
2022/07/17 09:05:22;;;;;;;3.10;1.48;;;22.70;99.90;;;;;;5070214;28;20256;-71
2022/07/17 09:07:48;;;;;;;5.93;1.83;;;23.10;99.90;;;;;;5069891;28;20203;-71
2022/07/17 09:10:14;;;;;;;6.53;2.58;;;22.70;99.90;;;;;;5043928;28;20226;-71
2022/07/17 09:12:40;;;;;;;4.80;2.17;;;23.10;99.90;;;;;;5043781;28;20572;-71
2022/07/17 09:15:19;;;;;;;6.50;2.30;;;23.10;99.90;;;;;;5070395;28;20220;-71
2022/07/17 09:17:52;;;;;;;4.68;1.75;;;22.40;99.90;;;;;;5068834;28;20575;-71
2022/07/17 09:20:20;;;;;;;3.38;1.40;;;23.00;99.90;;;;;;5069974;28;20623;-70
2022/07/17 09:23:06;;;;;;;3.95;1.75;;;23.50;99.90;;;;;;5041937;28;20223;-71
2022/07/17 09:25:40;;;;;;;4.70;2.08;;;23.40;99.90;;;;;;5052415;28;20684;-72
2022/07/17 09:28:08;;;;;;;5.75;1.40;;;23.10;99.90;;;;;;5069626;28;20206;-72
2022/07/17 09:30:36;;;;;;;7.07;1.40;;;23.00;99.90;;;;;;5069855;28;20207;-72
2022/07/17 09:33:05;;;;;;;6.25;1.90;;;23.20;99.90;;;;;;5070019;28;20164;-71
2022/07/17 09:35:30;;;;;;;4.10;1.33;;;23.20;99.90;;;;;;5070487;28;20262;-71
2022/07/17 09:37:56;;;;;;;9.38;4.57;;;23.10;99.90;;;;;;5070117;28;20282;-71
2022/07/17 09:43:07;;;;;;;6.18;1.80;;;23.00;99.90;;;;;;5070209;28;20340;-72
2022/07/17 09:45:34;;;;;;;4.30;2.00;;;22.40;99.90;;;;;;5069766;28;20565;-71
2022/07/17 09:48:01;;;;;;;5.85;2.05;;;22.20;99.90;;;;;;5038646;28;20769;-72
2022/07/17 09:50:28;;;;;;;5.88;1.75;;;22.20;99.90;;;;;;5049701;28;20261;-71
2022/07/17 09:52:56;;;;;;;6.93;2.00;;;21.80;99.90;;;;;;5049501;28;20203;-71
2022/07/17 09:55:29;;;;;;;5.30;1.45;;;21.80;99.90;;;;;;5049431;28;20219;-71
2022/07/17 09:57:58;;;;;;;4.95;1.60;;;22.00;99.90;;;;;;5049702;28;20215;-73
2022/07/17 10:00:24;;;;;;;3.35;1.50;;;22.30;99.90;;;;;;5049612;28;20242;-71
2022/07/17 10:02:50;;;;;;;4.05;1.85;;;22.50;99.90;;;;;;5050404;28;20195;-71
2022/07/17 10:05:16;;;;;;;5.75;1.73;;;22.70;99.90;;;;;;5049896;28;20204;-71
2022/07/17 10:07:45;;;;;;;6.45;2.10;;;22.90;99.90;;;;;;5050304;28;20692;-71
2022/07/17 10:10:12;;;;;;;6.18;2.05;;;23.50;99.90;;;;;;5068815;28;20607;-72
2022/07/17 10:12:40;;;;;;;4.65;2.10;;;23.70;99.90;;;;;;5073690;28;20234;-71
2022/07/17 10:15:07;;;;;;;6.22;1.95;;;23.50;99.90;;;;;;5073717;28;20168;-71
2022/07/17 10:17:33;;;;;;;7.68;2.35;;;23.60;99.90;;;;;;5071446;28;20755;-71
2022/07/17 10:19:58;;;;;;;5.72;1.80;;;23.70;99.90;;;;;;5073160;28;20227;-70
2022/07/17 10:22:25;;;;;;;5.18;1.75;;;24.30;99.90;;;;;;5073363;28;20202;-71
2022/07/17 10:24:56;;;;;;;4.15;1.58;;;24.20;99.90;;;;;;5073239;28;20235;-70
2022/07/17 10:27:27;;;;;;;7.30;3.28;;;23.90;99.90;;;;;;5063884;28;20214;-70
2022/07/17 10:29:59;;;;;;;6.88;1.98;;;24.00;99.90;;;;;;5073484;28;20229;-70
2022/07/17 10:32:25;;;;;;;4.82;2.13;;;23.50;99.90;;;;;;5072906;28;20209;-71
2022/07/17 10:35:09;;;;;;;8.15;2.35;;;23.50;99.90;;;;;;5072997;28;20253;-70
2022/07/17 10:37:35;;;;;;;4.28;1.48;;;23.10;99.90;;;;;;5072649;28;20211;-71
2022/07/17 10:40:00;;;;;;;4.28;1.80;;;23.20;99.90;;;;;;5067314;28;20210;-70
2022/07/17 10:42:46;;;;;;;3.97;1.40;;;23.40;99.90;;;;;;5052956;28;20223;-71
2022/07/17 10:45:12;;;;;;;5.18;1.90;;;23.60;99.90;;;;;;5043214;28;20226;-70
2022/07/17 10:47:59;;;;;;;5.40;1.63;;;24.00;99.90;;;;;;5055911;28;20196;-70
2022/07/17 10:50:25;;;;;;;5.88;2.10;;;24.10;99.90;;;;;;5046239;28;20221;-70
2022/07/17 10:53:23;;;;;;;4.97;2.42;;;24.60;99.90;;;;;;5072933;28;20232;-70
2022/07/17 10:55:52;;;;;;;4.22;1.80;;;24.40;99.90;;;;;;5045740;28;20209;-69
2022/07/17 10:58:25;;;;;;;4.65;1.70;;;23.70;99.90;;;;;;5072280;28;20209;-71
2022/07/17 11:00:59;;;;;;;3.40;1.50;;;24.00;99.90;;;;;;5057513;28;20225;-71
2022/07/17 11:03:26;;;;;;;3.45;1.75;;;23.70;99.90;;;;;;5072506;28;20301;-71
2022/07/17 11:05:51;;;;;;;7.20;1.58;;;23.50;99.90;;;;;;5046601;28;20171;-70
2022/07/17 11:08:17;;;;;;;5.15;1.42;;;23.50;99.90;;;;;;5055971;28;20772;-70
2022/07/17 11:10:42;;;;;;;3.92;1.80;;;23.30;99.90;;;;;;5052249;28;20203;-70
2022/07/17 11:13:13;;;;;;;5.50;1.80;;;23.10;99.90;;;;;;5052575;28;20749;-71
2022/07/17 11:15:47;;;;;;;6.50;1.63;;;22.60;99.90;;;;;;5052130;28;20211;-71
2022/07/17 11:18:19;;;;;;;5.45;1.70;;;22.70;99.90;;;;;;5051806;28;20695;-70
2022/07/17 11:20:56;;;;;;;5.32;1.77;;;22.70;99.90;;;;;;5046087;28;20183;-71
2022/07/17 11:23:24;;;;;;;5.80;1.48;;;23.20;99.90;;;;;;5072141;28;20206;-71
2022/07/17 11:26:04;;;;;;;3.60;1.63;;;23.30;99.90;;;;;;5066637;28;20208;-70
2022/07/17 11:28:35;;;;;;;5.65;1.88;;;23.10;99.90;;;;;;5051602;28;20226;-71
2022/07/17 11:31:03;;;;;;;4.28;1.58;;;23.30;99.90;;;;;;5052013;28;20207;-71
2022/07/17 11:33:29;;;;;;;5.55;1.95;;;23.40;99.90;;;;;;5051897;28;20258;-70
2022/07/17 11:35:55;;;;;;;4.47;1.40;;;23.40;99.90;;;;;;5052453;28;20168;-70
2022/07/17 11:38:28;;;;;;;4.05;2.25;;;23.50;99.90;;;;;;5051516;28;20203;-71
2022/07/17 11:40:54;;;;;;;4.13;1.58;;;23.00;99.90;;;;;;5057895;28;20272;-71
2022/07/17 11:43:20;;;;;;;3.30;1.50;;;22.70;99.90;;;;;;5071904;28;20203;-71
2022/07/17 11:45:46;;;;;;;4.43;1.55;;;22.60;99.90;;;;;;5071550;28;20230;-70
2022/07/17 11:48:12;;;;;;;3.83;1.38;;;22.70;99.90;;;;;;5069346;28;20745;-70
2022/07/17 11:50:37;;;;;;;2.45;1.55;;;22.30;99.90;;;;;;5072183;28;20309;-71
2022/07/17 11:53:05;;;;;;;2.45;1.20;;;22.40;99.90;;;;;;5071695;28;20655;-71
2022/07/17 11:55:41;;;;;;;3.75;1.63;;;22.50;99.90;;;;;;5071502;28;20207;-70
2022/07/17 11:58:07;;;;;;;3.30;1.50;;;22.80;99.90;;;;;;5071404;28;20210;-71
2022/07/17 12:00:33;;;;;;;5.85;1.58;;;22.90;99.90;;;;;;5071608;28;20215;-71
2022/07/17 12:03:04;;;;;;;6.40;1.27;;;22.90;99.90;;;;;;5072254;28;20171;-70
2022/07/17 12:05:32;;;;;;;5.53;1.95;;;22.80;99.90;;;;;;5079464;28;20211;-71
2022/07/17 12:07:58;;;;;;;6.93;2.45;;;23.00;99.90;;;;;;5090940;28;20265;-71
2022/07/17 12:10:27;;;;;;;3.70;1.80;;;23.10;99.90;;;;;;5049881;28;20228;-71
2022/07/17 12:13:01;;;;;;;4.78;1.90;;;23.20;99.90;;;;;;5071347;28;20211;-72
2022/07/17 12:15:45;;;;;;;4.15;1.73;;;23.20;99.90;;;;;;5071049;28;20625;-70
2022/07/17 12:18:25;;;;;;;4.60;1.95;;;23.20;99.90;;;;;;5038041;28;20207;-71
2022/07/17 12:20:54;;;;;;;3.55;1.58;;;23.30;99.90;;;;;;5026031;28;20171;-70
2022/07/17 12:23:38;;;;;;;3.55;1.60;;;23.10;99.90;;;;;;5051025;28;20226;-71
2022/07/17 12:26:05;;;;;;;4.13;1.20;;;23.20;99.90;;;;;;5052566;28;20630;-71
2022/07/17 12:28:30;;;;;;;5.53;1.85;;;23.30;99.90;;;;;;5050525;28;20216;-71
2022/07/17 12:30:56;;;;;;;4.00;1.20;;;23.20;99.90;;;;;;5050643;28;20648;-71
2022/07/17 12:33:21;;;;;;;5.90;1.95;;;23.20;99.90;;;;;;5041018;28;20218;-71
2022/07/17 12:35:47;;;;;;;3.45;1.50;;;23.20;99.90;;;;;;5051191;28;20686;-72
2022/07/17 12:38:12;;;;;;;6.50;1.85;;;23.10;99.90;;;;;;5050360;28;20208;-71
2022/07/17 12:40:38;;;;;;;4.88;1.30;;;22.90;99.90;;;;;;5050924;28;20216;-70
2022/07/17 12:43:04;;;;;;;4.30;1.63;;;22.80;99.90;;;;;;5032737;28;20201;-70
2022/07/17 12:45:29;;;;;;;4.07;1.77;;;22.80;99.90;;;;;;5050351;28;20227;-71
2022/07/17 12:47:55;;;;;;;3.55;1.80;;;22.80;99.90;;;;;;5051364;28;20198;-72
2022/07/17 12:50:20;;;;;;;5.68;1.70;;;22.70;99.90;;;;;;5051072;28;20223;-71